createdAt,value
2019-05-26T00:00:23.824Z,2.40
2019-05-26T00:02:52.725Z,3.30
2019-05-26T00:05:21.611Z,2.75
2019-05-26T00:07:50.497Z,2.42
2019-05-26T00:10:19.557Z,3.15
2019-05-26T00:12:48.433Z,2.42
2019-05-26T00:15:17.514Z,3.00
2019-05-26T00:17:46.480Z,3.22
2019-05-26T00:20:15.450Z,2.77
2019-05-26T00:22:44.336Z,3.00
2019-05-26T00:25:14.738Z,3.45
2019-05-26T00:27:43.647Z,3.40
2019-05-26T00:30:12.827Z,3.27
2019-05-26T00:32:41.823Z,2.60
2019-05-26T00:35:10.762Z,2.58
2019-05-26T00:37:48.943Z,2.95
2019-05-26T00:40:10.859Z,3.50
2019-05-26T00:42:39.741Z,3.85
2019-05-26T00:45:09.446Z,3.02
2019-05-26T00:47:38.362Z,3.05
2019-05-26T00:50:08.839Z,3.17
2019-05-26T00:52:37.684Z,3.20
2019-05-26T00:55:08.504Z,2.70
2019-05-26T00:57:37.573Z,3.20
2019-05-26T01:00:09.023Z,3.33
2019-05-26T01:02:37.899Z,2.37
2019-05-26T01:05:08.744Z,3.33
2019-05-26T01:07:38.194Z,3.02
2019-05-26T01:10:09.819Z,3.37
2019-05-26T01:15:08.335Z,2.50
2019-05-26T01:17:37.243Z,3.20
2019-05-26T01:20:06.820Z,3.58
2019-05-26T01:22:35.664Z,3.05
2019-05-26T01:25:07.264Z,3.17
2019-05-26T01:30:07.333Z,3.12
2019-05-26T01:32:36.295Z,3.75
2019-05-26T01:35:07.319Z,3.85
2019-05-26T01:37:38.162Z,3.58
2019-05-26T01:40:07.514Z,3.35
2019-05-26T01:42:36.348Z,3.42
2019-05-26T01:45:06.870Z,3.45
2019-05-26T01:47:35.748Z,3.00
2019-05-26T01:50:07.283Z,3.40
2019-05-26T01:52:36.240Z,3.15
2019-05-26T01:55:07.592Z,3.83
2019-05-26T01:57:36.485Z,2.85
2019-05-26T02:00:07.263Z,2.72
2019-05-26T02:02:36.111Z,3.17
2019-05-26T02:05:05.727Z,2.67
2019-05-26T02:07:34.676Z,3.20
2019-05-26T02:10:04.947Z,3.12
2019-05-26T02:12:33.852Z,3.08
2019-05-26T02:15:02.795Z,3.20
2019-05-26T02:17:31.665Z,3.10
2019-05-26T02:20:00.542Z,3.00
2019-05-26T02:22:29.491Z,2.98
2019-05-26T02:24:58.372Z,3.27
2019-05-26T02:27:27.246Z,3.17
2019-05-26T02:29:56.198Z,2.85
2019-05-26T02:32:25.073Z,3.55
2019-05-26T02:34:54.002Z,2.58
2019-05-26T02:37:22.898Z,2.90
2019-05-26T02:39:51.785Z,3.05
2019-05-26T02:42:21.368Z,3.80
2019-05-26T02:44:50.360Z,2.85
2019-05-26T02:47:19.191Z,3.05
2019-05-26T02:49:48.070Z,2.45
2019-05-26T02:52:17.021Z,2.58
2019-05-26T02:54:45.865Z,2.98
2019-05-26T02:57:14.861Z,3.00
2019-05-26T02:59:43.717Z,3.10
2019-05-26T03:02:12.602Z,2.98
2019-05-26T03:04:42.008Z,3.17
2019-05-26T03:07:12.407Z,2.60
2019-05-26T03:09:43.221Z,3.08
2019-05-26T03:12:12.150Z,3.35
2019-05-26T03:14:44.045Z,2.35
2019-05-26T03:17:12.880Z,2.70
2019-05-26T03:19:42.136Z,2.02
2019-05-26T03:22:13.967Z,2.70
2019-05-26T03:24:45.191Z,2.35
2019-05-26T03:27:14.080Z,3.75
2019-05-26T03:29:42.962Z,2.27
2019-05-26T03:32:11.888Z,2.47
2019-05-26T03:34:40.828Z,2.85
2019-05-26T03:37:09.930Z,2.80
2019-05-26T03:39:45.515Z,2.60
2019-05-26T03:42:09.381Z,3.22
2019-05-26T03:44:38.304Z,2.80
2019-05-26T03:47:07.460Z,2.72
2019-05-26T03:49:36.315Z,2.72
2019-05-26T03:52:05.516Z,2.55
2019-05-26T03:54:34.441Z,2.80
2019-05-26T03:57:03.335Z,2.75
2019-05-26T03:59:32.295Z,2.10
2019-05-26T04:02:01.133Z,2.60
2019-05-26T04:04:30.006Z,2.70
2019-05-26T04:06:58.930Z,2.30
2019-05-26T04:09:27.811Z,2.77
2019-05-26T04:11:56.805Z,3.10
2019-05-26T04:14:25.721Z,2.77
2019-05-26T04:16:56.470Z,3.02
2019-05-26T04:19:25.443Z,2.37
2019-05-26T04:21:54.309Z,2.27
2019-05-26T04:24:23.806Z,2.40
2019-05-26T04:26:52.651Z,2.62
2019-05-26T04:29:21.556Z,2.77
2019-05-26T04:31:50.477Z,2.98
2019-05-26T04:34:19.337Z,2.17
2019-05-26T04:36:48.214Z,2.37
2019-05-26T04:39:17.163Z,2.67
2019-05-26T04:41:45.999Z,2.37
2019-05-26T04:44:14.882Z,2.27
2019-05-26T04:46:43.787Z,1.80
2019-05-26T04:49:12.632Z,3.15
2019-05-26T04:51:41.562Z,2.80
2019-05-26T04:54:10.438Z,2.60
2019-05-26T04:56:39.443Z,2.60
2019-05-26T04:59:08.409Z,2.37
2019-05-26T05:01:37.236Z,2.62
2019-05-26T05:04:06.092Z,2.58
2019-05-26T05:06:35.096Z,2.17
2019-05-26T05:09:05.425Z,2.52
2019-05-26T05:11:34.300Z,2.37
2019-05-26T05:14:03.259Z,2.58
2019-05-26T05:16:32.178Z,2.62
2019-05-26T05:19:01.023Z,2.67
2019-05-26T05:21:29.939Z,2.33
2019-05-26T05:23:58.830Z,2.08
2019-05-26T05:26:27.767Z,1.85
2019-05-26T05:28:56.730Z,2.37
2019-05-26T05:31:25.590Z,2.15
2019-05-26T05:33:54.477Z,3.20
2019-05-26T05:36:23.398Z,2.00
2019-05-26T05:38:52.286Z,1.98
2019-05-26T05:41:21.224Z,2.10
2019-05-26T05:43:50.153Z,3.10
2019-05-26T05:46:19.022Z,2.37
2019-05-26T05:48:47.968Z,1.98
2019-05-26T05:51:16.966Z,2.05
2019-05-26T05:53:45.851Z,2.40
2019-05-26T05:56:14.735Z,2.75
2019-05-26T05:58:44.494Z,1.95
2019-05-26T06:01:13.411Z,2.27
2019-05-26T06:03:42.267Z,2.25
2019-05-26T06:06:11.174Z,2.00
2019-05-26T06:08:40.021Z,2.65
2019-05-26T06:11:16.636Z,1.70
2019-05-26T06:13:39.729Z,2.72
2019-05-26T06:16:08.607Z,1.95
2019-05-26T06:18:37.562Z,2.27
2019-05-26T06:21:06.480Z,1.95
2019-05-26T06:23:37.076Z,1.77
2019-05-26T06:26:06.084Z,2.10
2019-05-26T06:28:34.929Z,2.17
2019-05-26T06:31:03.775Z,2.50
2019-05-26T06:33:32.735Z,1.90
2019-05-26T06:36:01.615Z,1.87
2019-05-26T06:38:30.555Z,1.90
2019-05-26T06:40:59.526Z,2.05
2019-05-26T06:43:28.377Z,2.12
2019-05-26T06:45:57.254Z,2.17
2019-05-26T06:48:27.051Z,1.67
2019-05-26T06:50:56.257Z,1.90
2019-05-26T06:53:25.209Z,2.08
2019-05-26T06:55:54.174Z,1.92
2019-05-26T06:58:23.005Z,1.67
2019-05-26T07:00:52.029Z,1.62
2019-05-26T07:03:20.927Z,1.60
2019-05-26T07:05:49.805Z,1.57
2019-05-26T07:08:18.711Z,1.90
2019-05-26T07:10:47.619Z,2.05
2019-05-26T07:13:16.513Z,1.30
2019-05-26T07:15:45.467Z,1.55
2019-05-26T07:18:14.348Z,1.72
2019-05-26T07:20:43.532Z,1.62
2019-05-26T07:23:14.113Z,1.42
2019-05-26T07:25:43.028Z,1.62
2019-05-26T07:28:11.925Z,1.55
2019-05-26T07:30:40.857Z,1.67
2019-05-26T07:33:09.733Z,1.98
2019-05-26T07:35:38.649Z,1.62
2019-05-26T07:38:07.521Z,1.55
2019-05-26T07:40:36.409Z,2.00
2019-05-26T07:43:05.371Z,1.27
2019-05-26T07:45:34.266Z,1.87
2019-05-26T07:48:03.134Z,1.20
2019-05-26T07:50:32.128Z,1.40
2019-05-26T07:53:00.963Z,1.20
2019-05-26T07:55:29.855Z,1.45
2019-05-26T07:57:58.808Z,1.70
2019-05-26T08:00:27.762Z,1.50
2019-05-26T08:02:56.710Z,1.77
2019-05-26T08:05:25.558Z,1.40
2019-05-26T08:08:11.215Z,1.25
2019-05-26T08:10:25.069Z,1.80
2019-05-26T08:12:53.888Z,1.50
2019-05-26T08:15:22.800Z,1.17
2019-05-26T08:17:51.754Z,1.45
2019-05-26T08:20:20.674Z,1.30
2019-05-26T08:22:49.512Z,2.08
2019-05-26T08:25:18.462Z,1.67
2019-05-26T08:27:47.352Z,1.30
2019-05-26T08:30:16.478Z,1.35
2019-05-26T08:32:45.354Z,1.72
2019-05-26T08:35:15.032Z,1.50
2019-05-26T08:37:43.946Z,1.50
2019-05-26T08:40:18.808Z,1.27
2019-05-26T08:42:49.186Z,1.80
2019-05-26T08:45:21.433Z,1.07
2019-05-26T08:47:49.039Z,1.50
2019-05-26T08:50:18.565Z,1.27
2019-05-26T08:52:47.460Z,1.17
2019-05-26T08:55:16.637Z,1.00
2019-05-26T08:57:45.411Z,1.22
2019-05-26T09:00:15.566Z,0.93
2019-05-26T09:02:44.475Z,1.45
2019-05-26T09:05:14.970Z,1.50
2019-05-26T09:07:43.899Z,1.57
2019-05-26T09:10:13.147Z,1.67
2019-05-26T09:12:42.028Z,1.57
2019-05-26T09:15:11.241Z,1.30
2019-05-26T09:17:40.148Z,1.10
2019-05-26T09:20:11.631Z,1.50
2019-05-26T09:22:40.845Z,1.30
2019-05-26T09:25:09.919Z,1.32
2019-05-26T09:27:38.816Z,1.45
2019-05-26T09:30:09.031Z,1.17
2019-05-26T09:32:37.964Z,0.95
2019-05-26T09:35:08.160Z,1.50
2019-05-26T09:37:37.050Z,1.25
2019-05-26T09:40:09.438Z,1.25
2019-05-26T09:42:38.341Z,1.12
2019-05-26T09:45:08.651Z,1.25
2019-05-26T09:47:37.589Z,1.17
2019-05-26T09:50:06.966Z,1.17
2019-05-26T09:52:35.888Z,1.62
2019-05-26T09:55:07.214Z,1.57
2019-05-26T09:57:36.055Z,1.50
2019-05-26T10:00:09.498Z,1.52
2019-05-26T10:02:38.388Z,1.77
2019-05-26T10:05:08.973Z,1.27
2019-05-26T10:07:37.942Z,1.20
2019-05-26T10:10:10.297Z,1.22
2019-05-26T10:12:39.182Z,1.12
2019-05-26T10:15:09.452Z,1.45
2019-05-26T10:17:38.386Z,1.10
2019-05-26T10:20:08.192Z,1.20
2019-05-26T10:22:37.116Z,1.10
2019-05-26T10:25:07.920Z,1.10
2019-05-26T10:27:36.766Z,1.87
2019-05-26T10:30:08.427Z,0.80
2019-05-26T10:35:08.625Z,0.85
2019-05-26T10:37:37.559Z,1.27
2019-05-26T10:40:08.065Z,1.10
2019-05-26T10:42:36.964Z,1.57
2019-05-26T10:45:08.032Z,1.12
2019-05-26T10:47:36.917Z,1.17
2019-05-26T10:50:07.809Z,1.05
2019-05-26T10:52:36.780Z,1.20
2019-05-26T10:55:07.781Z,1.27
2019-05-26T10:57:36.738Z,1.10
2019-05-26T11:00:08.087Z,0.88
2019-05-26T11:02:37.009Z,1.00
2019-05-26T11:05:09.235Z,1.00
2019-05-26T11:07:38.132Z,1.10
2019-05-26T11:10:08.158Z,0.65
2019-05-26T11:12:37.023Z,0.72
2019-05-26T11:15:08.491Z,1.10
2019-05-26T11:17:37.545Z,0.70
2019-05-26T11:20:08.396Z,0.80
2019-05-26T11:22:37.427Z,0.70
2019-05-26T11:25:08.274Z,0.70
2019-05-26T11:27:37.129Z,0.70
2019-05-26T11:30:11.307Z,0.78
2019-05-26T11:32:40.235Z,0.85
2019-05-26T11:35:10.269Z,1.10
2019-05-26T11:37:39.270Z,0.88
2019-05-26T11:40:08.525Z,0.90
2019-05-26T11:42:37.433Z,0.70
2019-05-26T11:45:07.826Z,0.70
2019-05-26T11:47:36.685Z,0.90
2019-05-26T11:50:09.623Z,0.75
2019-05-26T11:52:38.621Z,0.80
2019-05-26T11:55:07.716Z,0.95
2019-05-26T11:57:37.379Z,0.90
2019-05-26T12:00:10.419Z,1.25
2019-05-26T12:02:39.743Z,1.00
2019-05-26T12:05:09.125Z,0.80
2019-05-26T12:07:38.168Z,0.80
2019-05-26T12:10:13.777Z,0.90
2019-05-26T12:12:41.101Z,0.75
2019-05-26T12:15:10.235Z,0.60
2019-05-26T12:17:39.105Z,0.50
2019-05-26T12:20:09.634Z,0.60
2019-05-26T12:22:38.632Z,0.50
2019-05-26T12:25:08.736Z,0.88
2019-05-26T12:27:37.604Z,0.90
2019-05-26T12:30:10.211Z,0.80
2019-05-26T12:32:39.147Z,1.00
2019-05-26T12:35:11.285Z,0.95
2019-05-26T12:37:40.170Z,0.82
2019-05-26T12:40:09.778Z,0.90
2019-05-26T12:42:38.735Z,0.93
2019-05-26T12:45:09.330Z,0.78
2019-05-26T12:47:38.230Z,0.93
2019-05-26T12:50:09.357Z,0.62
2019-05-26T12:52:38.607Z,0.80
2019-05-26T12:55:09.882Z,0.98
2019-05-26T13:00:12.848Z,0.80
2019-05-26T13:02:41.811Z,0.80
2019-05-26T13:05:10.742Z,0.90
2019-05-26T13:07:40.239Z,0.88
2019-05-26T13:10:10.891Z,0.95
2019-05-26T13:12:39.837Z,0.80
2019-05-26T13:15:10.684Z,0.60
2019-05-26T13:17:39.770Z,0.42
2019-05-26T13:20:09.926Z,0.68
2019-05-26T13:22:39.970Z,0.95
2019-05-26T13:25:10.602Z,1.47
2019-05-26T13:27:39.511Z,1.17
2019-05-26T13:30:16.971Z,0.90
2019-05-26T13:32:45.987Z,1.02
2019-05-26T13:35:16.498Z,1.27
2019-05-26T13:37:45.381Z,0.82
2019-05-26T13:40:15.912Z,0.90
2019-05-26T13:42:44.799Z,1.13
2019-05-26T13:45:22.564Z,1.22
2019-05-26T13:47:45.547Z,1.10
2019-05-26T13:50:16.348Z,0.82
2019-05-26T13:52:45.266Z,1.00
2019-05-26T13:55:14.887Z,0.80
2019-05-26T13:57:43.812Z,1.40
2019-05-26T14:00:16.810Z,1.47
2019-05-26T14:02:45.747Z,0.95
2019-05-26T14:05:15.317Z,1.22
2019-05-26T14:07:44.288Z,1.12
2019-05-26T14:10:13.193Z,1.20
2019-05-26T14:12:42.131Z,0.85
2019-05-26T14:15:13.107Z,1.90
2019-05-26T14:17:42.977Z,1.40
2019-05-26T14:20:12.180Z,1.10
2019-05-26T14:22:41.134Z,0.90
2019-05-26T14:25:10.483Z,1.30
2019-05-26T14:27:39.354Z,0.90
2019-05-26T14:30:10.049Z,1.10
2019-05-26T14:32:38.996Z,1.27
2019-05-26T14:35:08.050Z,1.00
2019-05-26T14:37:36.993Z,0.95
2019-05-26T14:40:09.812Z,1.52
2019-05-26T14:42:38.754Z,1.60
2019-05-26T14:45:08.194Z,1.22
2019-05-26T14:47:37.046Z,0.85
2019-05-26T14:50:09.903Z,0.90
2019-05-26T14:52:39.299Z,1.75
2019-05-26T14:55:08.751Z,1.20
2019-05-26T14:57:37.684Z,1.25
2019-05-26T15:00:08.422Z,2.00
2019-05-26T15:02:37.672Z,2.52
2019-05-26T15:05:07.161Z,1.67
2019-05-26T15:07:36.142Z,1.77
2019-05-26T15:10:09.047Z,1.40
2019-05-26T15:12:38.175Z,1.42
2019-05-26T15:15:08.769Z,1.45
2019-05-26T15:17:38.072Z,1.60
2019-05-26T15:20:07.601Z,1.50
2019-05-26T15:22:36.609Z,1.02
2019-05-26T15:25:08.842Z,1.57
2019-05-26T15:27:37.820Z,1.20
2019-05-26T15:30:08.267Z,1.10
2019-05-26T15:32:37.170Z,1.40
2019-05-26T15:35:07.685Z,0.80
2019-05-26T15:37:36.595Z,1.40
2019-05-26T15:40:10.099Z,1.20
2019-05-26T15:42:39.080Z,0.90
2019-05-26T15:45:08.645Z,1.40
2019-05-26T15:47:37.560Z,0.88
2019-05-26T15:50:08.251Z,1.27
2019-05-26T15:52:37.195Z,1.17
2019-05-26T15:55:06.287Z,1.40
2019-05-26T15:57:35.232Z,0.90
2019-05-26T16:00:07.017Z,1.10
2019-05-26T16:02:35.999Z,1.40
2019-05-26T16:05:06.251Z,1.20
2019-05-26T16:07:35.151Z,1.47
2019-05-26T16:10:06.536Z,1.32
2019-05-26T16:12:35.410Z,0.93
2019-05-26T16:15:06.102Z,1.17
2019-05-26T16:17:38.402Z,1.30
2019-05-26T16:20:07.273Z,1.10
2019-05-26T16:22:36.256Z,1.30
2019-05-26T16:25:06.479Z,1.40
2019-05-26T16:27:35.376Z,1.02
2019-05-26T16:30:07.260Z,1.32
2019-05-26T16:32:36.169Z,1.20
2019-05-26T16:35:05.798Z,1.87
2019-05-26T16:37:34.737Z,1.45
2019-05-26T16:40:04.967Z,1.42
2019-05-26T16:42:33.869Z,1.37
2019-05-26T16:45:06.967Z,1.20
2019-05-26T16:47:35.986Z,1.22
2019-05-26T16:50:06.906Z,1.50
2019-05-26T16:52:35.864Z,1.37
2019-05-26T16:55:06.387Z,1.35
2019-05-26T16:57:35.338Z,1.15
2019-05-26T17:00:05.928Z,1.67
2019-05-26T17:02:34.785Z,1.03
2019-05-26T17:05:03.910Z,1.00
2019-05-26T17:07:32.900Z,0.85
2019-05-26T17:10:01.924Z,1.25
2019-05-26T17:12:31.206Z,0.88
2019-05-26T17:15:00.346Z,1.17
2019-05-26T17:17:29.208Z,1.30
2019-05-26T17:19:58.247Z,1.22
2019-05-26T17:22:27.195Z,1.17
2019-05-26T17:24:56.100Z,1.05
2019-05-26T17:27:25.088Z,0.88
2019-05-26T17:29:53.933Z,1.02
2019-05-26T17:32:22.897Z,0.98
2019-05-26T17:34:51.808Z,1.05
2019-05-26T17:37:20.737Z,0.98
2019-05-26T17:39:49.646Z,0.95
2019-05-26T17:42:18.634Z,0.90
2019-05-26T17:44:47.487Z,0.75
2019-05-26T17:47:29.353Z,1.32
2019-05-26T17:49:47.039Z,0.80
2019-05-26T17:52:15.988Z,1.10
2019-05-26T17:54:44.991Z,0.90
2019-05-26T17:57:14.006Z,1.05
2019-05-26T17:59:42.925Z,1.10
2019-05-26T18:02:15.143Z,1.20
2019-05-26T18:04:44.168Z,1.27
2019-05-26T18:07:13.064Z,1.30
2019-05-26T18:09:44.488Z,1.25
2019-05-26T18:12:12.589Z,1.50
2019-05-26T18:14:41.487Z,1.32
2019-05-26T18:17:10.377Z,1.12
2019-05-26T18:19:39.358Z,1.45
2019-05-26T18:22:08.307Z,1.27
2019-05-26T18:24:37.317Z,1.40
2019-05-26T18:27:06.254Z,1.35
2019-05-26T18:29:35.166Z,1.90
2019-05-26T18:32:10.351Z,2.15
2019-05-26T18:34:39.309Z,1.27
2019-05-26T18:37:08.243Z,1.75
2019-05-26T18:39:37.258Z,1.45
2019-05-26T18:42:07.128Z,1.45
2019-05-26T18:44:36.891Z,1.52
2019-05-26T18:47:06.168Z,1.32
2019-05-26T18:49:35.082Z,1.30
2019-05-26T18:52:04.002Z,1.60
2019-05-26T18:54:32.961Z,2.00
2019-05-26T18:57:01.898Z,1.70
2019-05-26T18:59:30.835Z,1.50
2019-05-26T19:01:59.750Z,1.65
2019-05-26T19:04:28.718Z,1.52
2019-05-26T19:06:57.650Z,1.70
2019-05-26T19:09:26.557Z,1.40
2019-05-26T19:11:55.517Z,1.50
2019-05-26T19:14:24.510Z,1.55
2019-05-26T19:16:53.774Z,1.67
2019-05-26T19:19:22.717Z,2.10
2019-05-26T19:21:55.841Z,1.40
2019-05-26T19:24:24.715Z,1.40
2019-05-26T19:26:53.690Z,1.67
2019-05-26T19:29:22.687Z,1.77
2019-05-26T19:31:51.598Z,1.40
2019-05-26T19:34:20.496Z,1.17
2019-05-26T19:36:49.537Z,1.65
2019-05-26T19:39:18.423Z,1.98
2019-05-26T19:41:47.346Z,1.60
2019-05-26T19:44:16.276Z,1.92
2019-05-26T19:46:45.183Z,1.55
2019-05-26T19:49:14.106Z,1.50
2019-05-26T19:51:44.106Z,1.50
2019-05-26T19:54:13.046Z,1.55
2019-05-26T19:56:41.903Z,1.40
2019-05-26T19:59:10.902Z,1.77
2019-05-26T20:01:41.033Z,1.45
2019-05-26T20:04:10.051Z,1.87
2019-05-26T20:06:38.890Z,1.20
2019-05-26T20:09:08.790Z,1.10
2019-05-26T20:11:37.797Z,2.10
2019-05-26T20:14:06.726Z,1.20
2019-05-26T20:16:35.584Z,1.27
2019-05-26T20:19:05.153Z,2.12
2019-05-26T20:21:34.085Z,1.50
2019-05-26T20:24:02.987Z,1.55
2019-05-26T20:26:31.908Z,1.52
2019-05-26T20:29:00.812Z,1.50
2019-05-26T20:31:29.714Z,1.55
2019-05-26T20:33:58.730Z,1.55
2019-05-26T20:36:27.591Z,1.47
2019-05-26T20:38:56.523Z,1.60
2019-05-26T20:41:25.386Z,1.60
2019-05-26T20:43:54.290Z,1.47
2019-05-26T20:46:23.222Z,1.62
2019-05-26T20:48:52.258Z,1.52
2019-05-26T20:51:21.159Z,1.60
2019-05-26T20:53:50.081Z,1.50
2019-05-26T20:56:19.070Z,1.55
2019-05-26T20:58:47.990Z,1.50
2019-05-26T21:01:16.934Z,1.30
2019-05-26T21:03:45.897Z,1.32
2019-05-26T21:06:14.802Z,1.30
2019-05-26T21:08:43.737Z,1.30
2019-05-26T21:11:15.689Z,1.10
2019-05-26T21:13:44.589Z,1.30
2019-05-26T21:16:13.489Z,1.95
2019-05-26T21:18:42.436Z,1.40
2019-05-26T21:21:16.576Z,2.02
2019-05-26T21:23:45.480Z,1.57
2019-05-26T21:26:14.378Z,1.55
2019-05-26T21:28:43.308Z,1.70
2019-05-26T21:31:12.233Z,1.50
2019-05-26T21:33:41.193Z,1.30
2019-05-26T21:36:10.044Z,1.67
2019-05-26T21:38:38.934Z,1.30
2019-05-26T21:41:07.902Z,1.90
2019-05-26T21:43:36.807Z,1.57
2019-05-26T21:46:05.734Z,1.30
2019-05-26T21:48:34.934Z,1.77
2019-05-26T21:51:03.876Z,1.22
2019-05-26T21:53:32.821Z,1.45
2019-05-26T21:56:01.735Z,1.77
2019-05-26T21:58:30.586Z,1.40
2019-05-26T22:00:59.530Z,1.60
2019-05-26T22:03:28.453Z,2.20
2019-05-26T22:05:57.328Z,1.50
2019-05-26T22:08:26.257Z,1.42
2019-05-26T22:10:55.199Z,1.57
2019-05-26T22:13:24.106Z,1.22
2019-05-26T22:15:52.976Z,2.00
2019-05-26T22:18:21.894Z,2.20
2019-05-26T22:20:50.873Z,1.50
2019-05-26T22:23:19.808Z,1.60
2019-05-26T22:25:48.709Z,1.62
2019-05-26T22:28:17.584Z,1.40
2019-05-26T22:30:46.530Z,2.02
2019-05-26T22:33:15.462Z,2.30
2019-05-26T22:35:44.406Z,1.60
2019-05-26T22:38:13.289Z,1.32
2019-05-26T22:40:42.245Z,1.60
2019-05-26T22:43:11.194Z,1.45
2019-05-26T22:45:40.044Z,1.45
2019-05-26T22:48:08.983Z,1.50
2019-05-26T22:50:38.882Z,1.65
2019-05-26T22:53:07.824Z,1.80
2019-05-26T22:55:36.716Z,1.60
2019-05-26T22:58:05.745Z,1.95
2019-05-26T23:00:34.631Z,1.45
2019-05-26T23:03:03.531Z,1.80
2019-05-26T23:05:32.501Z,1.72
2019-05-26T23:08:01.391Z,1.82
2019-05-26T23:10:30.275Z,1.42
2019-05-26T23:12:59.270Z,1.72
2019-05-26T23:15:28.217Z,1.52
2019-05-26T23:17:57.111Z,1.72
2019-05-26T23:20:26.127Z,1.55
2019-05-26T23:22:55.066Z,1.60
2019-05-26T23:25:23.960Z,1.62
2019-05-26T23:27:52.861Z,1.67
2019-05-26T23:30:21.961Z,1.72
2019-05-26T23:32:50.930Z,1.60
2019-05-26T23:35:19.857Z,1.52
2019-05-26T23:37:48.772Z,1.42
2019-05-26T23:40:17.806Z,1.40
2019-05-26T23:42:46.699Z,1.90
2019-05-26T23:45:15.581Z,1.67
2019-05-26T23:47:44.452Z,1.87
2019-05-26T23:50:13.448Z,1.60
2019-05-26T23:52:42.378Z,1.40
2019-05-26T23:55:11.742Z,1.75
2019-05-26T23:57:40.626Z,1.65
